Time;durP1;ratioP1;P1;durP2;ratioP2;P2;SDS_P1;SDS_P2;PMS_P1;PMS_P2;Temp;Humidity;BMP_temperature;BMP_pressure;BME280_temperature;BME280_humidity;BME280_pressure;Samples;Min_cycle;Max_cycle;Signal;HPM_P1;HPM_P2
2021/04/24 00:00:56;;;;;;;4.60;2.67;;;;;;;;;;5034408;28;20182;-71
2021/04/24 00:03:23;;;;;;;6.93;2.90;;;;;;;;;;5033945;28;20180;-71
2021/04/24 00:05:49;;;;;;;7.20;2.70;;;;;;;;;;5034200;28;20182;-71
2021/04/24 00:08:16;;;;;;;6.37;2.87;;;;;;;;;;5032910;28;20188;-71
2021/04/24 00:10:42;;;;;;;6.80;2.83;;;;;;;;;;5016572;28;20206;-71
2021/04/24 00:13:09;;;;;;;9.23;3.13;;;;;;;;;;5032576;28;20178;-71
2021/04/24 00:15:35;;;;;;;6.03;3.20;;;;;;;;;;5032734;28;20557;-71
2021/04/24 00:18:01;;;;;;;7.10;3.00;;;;;;;;;;5032579;28;20623;-71
2021/04/24 00:20:27;;;;;;;6.87;2.77;;;;;;;;;;5033782;28;20294;-71
2021/04/24 00:22:53;;;;;;;8.73;3.13;;;;;;;;;;5032317;28;20182;-71
2021/04/24 00:25:19;;;;;;;5.73;3.03;;;;;;;;;;5032667;28;20186;-71
2021/04/24 00:27:45;;;;;;;4.90;2.53;;;;;;;;;;5016031;28;20656;-72
2021/04/24 00:30:12;;;;;;;5.37;3.13;;;;;;;;;;5032367;28;20232;-71
2021/04/24 00:32:38;;;;;;;5.33;3.10;;;;;;;;;;5032288;28;20643;-74
2021/04/24 00:35:04;;;;;;;6.23;3.23;;;;;;;;;;5015783;28;20663;-73
2021/04/24 00:37:30;;;;;;;4.73;2.70;;;;;;;;;;5032268;28;20214;-71
2021/04/24 00:39:56;;;;;;;5.60;3.20;;;;;;;;;;5033557;28;20250;-72
2021/04/24 00:42:22;;;;;;;5.60;3.30;;;;;;;;;;5015136;28;20178;-73
2021/04/24 00:44:48;;;;;;;5.10;2.80;;;;;;;;;;5032012;28;20208;-73
2021/04/24 00:47:14;;;;;;;8.17;3.37;;;;;;;;;;5032134;28;20189;-71
2021/04/24 00:49:40;;;;;;;6.33;3.83;;;;;;;;;;5035625;28;20199;-73
2021/04/24 00:52:06;;;;;;;10.37;3.50;;;;;;;;;;5049437;28;20192;-71
2021/04/24 00:54:32;;;;;;;12.17;4.17;;;;;;;;;;5035208;28;20185;-74
2021/04/24 00:56:58;;;;;;;7.33;3.67;;;;;;;;;;5051569;28;20738;-71
2021/04/24 00:59:24;;;;;;;9.80;3.47;;;;;;;;;;5051995;28;20195;-71
2021/04/24 01:01:50;;;;;;;7.83;4.03;;;;;;;;;;5035237;28;20682;-71
2021/04/24 01:04:16;;;;;;;8.07;3.90;;;;;;;;;;5052701;28;20256;-71
2021/04/24 01:06:42;;;;;;;5.13;3.40;;;;;;;;;;5051505;28;20200;-71
2021/04/24 01:09:08;;;;;;;6.43;3.57;;;;;;;;;;5051775;28;20688;-71
2021/04/24 01:11:34;;;;;;;10.60;4.03;;;;;;;;;;5035081;28;20597;-71
2021/04/24 01:14:00;;;;;;;9.23;4.23;;;;;;;;;;5051289;28;20190;-71
2021/04/24 01:16:26;;;;;;;9.17;4.03;;;;;;;;;;5052615;28;20209;-71
2021/04/24 01:18:52;;;;;;;8.83;4.50;;;;;;;;;;5052617;28;20222;-71
2021/04/24 01:21:18;;;;;;;10.43;4.20;;;;;;;;;;5051439;28;20185;-71
2021/04/24 01:23:44;;;;;;;8.10;4.60;;;;;;;;;;5034745;28;20174;-71
2021/04/24 01:26:10;;;;;;;7.43;4.50;;;;;;;;;;5052417;28;20185;-71
2021/04/24 01:28:36;;;;;;;8.63;5.10;;;;;;;;;;5051230;28;20192;-71
2021/04/24 01:31:02;;;;;;;8.33;4.67;;;;;;;;;;5052450;28;20192;-71
2021/04/24 01:33:27;;;;;;;10.50;4.43;;;;;;;;;;5050992;28;20272;-71
2021/04/24 01:35:53;;;;;;;8.33;4.63;;;;;;;;;;5034387;28;20694;-71
2021/04/24 01:38:19;;;;;;;8.73;5.13;;;;;;;;;;5050967;28;20224;-71
2021/04/24 01:40:45;;;;;;;9.80;4.73;;;;;;;;;;5052181;28;20204;-71
2021/04/24 01:43:11;;;;;;;7.37;4.57;;;;;;;;;;5050938;28;20184;-71
2021/04/24 01:45:37;;;;;;;14.33;5.07;;;;;;;;;;5050991;28;20538;-71
2021/04/24 01:48:05;;;;;;;9.73;5.00;;;;;;;;;;5050991;28;20171;-72
2021/04/24 01:50:33;;;;;;;10.37;4.80;;;;;;;;;;5050964;28;20665;-71
2021/04/24 01:52:59;;;;;;;10.87;4.90;;;;;;;;;;5050836;28;20520;-71
2021/04/24 01:55:26;;;;;;;10.70;5.37;;;;;;;;;;5050776;28;20220;-71
2021/04/24 01:57:52;;;;;;;12.13;4.93;;;;;;;;;;5051865;28;20667;-72
2021/04/24 02:00:28;;;;;;;10.20;5.33;;;;;;;;;;5050490;28;20546;-71
2021/04/24 02:02:54;;;;;;;11.03;5.03;;;;;;;;;;5051213;28;20483;-71
2021/04/24 02:05:20;;;;;;;10.07;5.03;;;;;;;;;;5050720;28;20546;-71
2021/04/24 02:07:59;;;;;;;11.07;5.27;;;;;;;;;;5050714;28;20184;-71
2021/04/24 02:10:25;;;;;;;11.03;4.97;;;;;;;;;;5034093;28;20245;-73
2021/04/24 02:12:52;;;;;;;11.57;4.90;;;;;;;;;;5051553;28;20185;-73
2021/04/24 02:15:18;;;;;;;9.90;4.93;;;;;;;;;;5033950;28;20187;-75
2021/04/24 02:17:44;;;;;;;8.43;4.87;;;;;;;;;;5050428;28;20584;-73
2021/04/24 02:20:10;;;;;;;9.60;4.43;;;;;;;;;;5050473;28;20246;-73
2021/04/24 02:22:36;;;;;;;9.57;4.60;;;;;;;;;;5051648;28;20188;-76
2021/04/24 02:25:02;;;;;;;9.57;4.37;;;;;;;;;;5033932;28;20180;-76
2021/04/24 02:27:29;;;;;;;8.63;4.43;;;;;;;;;;5050278;28;20647;-74
2021/04/24 02:29:55;;;;;;;10.43;4.47;;;;;;;;;;5033832;28;20560;-73
2021/04/24 02:32:25;;;;;;;8.67;4.27;;;;;;;;;;5049941;28;20642;-73
2021/04/24 02:34:51;;;;;;;9.57;4.47;;;;;;;;;;5050284;28;20172;-73
2021/04/24 02:37:17;;;;;;;9.57;4.47;;;;;;;;;;5051449;28;20263;-73
2021/04/24 02:39:44;;;;;;;9.13;4.37;;;;;;;;;;5050439;28;20606;-73
2021/04/24 02:42:11;;;;;;;7.57;4.70;;;;;;;;;;5050172;28;20210;-73
2021/04/24 02:44:37;;;;;;;7.90;4.40;;;;;;;;;;5033674;28;20185;-73
2021/04/24 02:47:03;;;;;;;9.20;4.90;;;;;;;;;;5050302;28;20181;-73
2021/04/24 02:49:32;;;;;;;8.60;4.50;;;;;;;;;;5050406;28;20214;-73
2021/04/24 02:51:59;;;;;;;8.93;4.30;;;;;;;;;;5050375;28;20237;-73
2021/04/24 02:54:25;;;;;;;7.07;3.77;;;;;;;;;;5051372;28;20182;-73
2021/04/24 02:56:51;;;;;;;8.93;4.70;;;;;;;;;;5050040;28;20579;-76
2021/04/24 02:59:17;;;;;;;8.97;4.70;;;;;;;;;;5051281;28;20668;-76
2021/04/24 03:01:43;;;;;;;9.43;4.97;;;;;;;;;;5051275;28;20181;-74
2021/04/24 03:04:09;;;;;;;9.37;4.63;;;;;;;;;;5049956;28;20642;-73
2021/04/24 03:06:35;;;;;;;8.97;5.13;;;;;;;;;;5052504;28;20227;-72
2021/04/24 03:09:01;;;;;;;9.00;4.00;;;;;;;;;;5037292;28;20238;-73
2021/04/24 03:11:28;;;;;;;6.83;4.27;;;;;;;;;;5059102;23;20741;-73
2021/04/24 03:13:54;;;;;;;8.57;4.67;;;;;;;;;;5034151;28;20729;-73
2021/04/24 03:16:20;;;;;;;7.83;4.73;;;;;;;;;;5034059;28;20293;-73
2021/04/24 03:18:46;;;;;;;8.03;4.67;;;;;;;;;;5033970;28;20172;-73
2021/04/24 03:21:12;;;;;;;11.53;4.60;;;;;;;;;;5048611;28;20224;-73
2021/04/24 03:23:38;;;;;;;11.10;4.60;;;;;;;;;;5037316;28;20175;-73
2021/04/24 03:26:04;;;;;;;10.63;4.63;;;;;;;;;;5054074;28;20518;-73
2021/04/24 03:28:30;;;;;;;7.57;4.77;;;;;;;;;;5053614;28;20269;-73
2021/04/24 03:30:56;;;;;;;11.97;4.63;;;;;;;;;;5054856;28;20195;-73
2021/04/24 03:33:22;;;;;;;7.93;4.70;;;;;;;;;;5036808;28;20656;-73
2021/04/24 03:35:48;;;;;;;9.23;4.93;;;;;;;;;;5053509;28;20176;-74
2021/04/24 03:38:14;;;;;;;8.20;4.37;;;;;;;;;;5053447;28;20518;-74
2021/04/24 03:40:40;;;;;;;11.03;5.13;;;;;;;;;;5053427;28;20195;-74
2021/04/24 03:43:06;;;;;;;10.20;4.83;;;;;;;;;;5053360;28;20174;-73
2021/04/24 03:45:32;;;;;;;10.17;5.10;;;;;;;;;;5054672;28;20725;-74
2021/04/24 03:47:58;;;;;;;13.23;5.03;;;;;;;;;;5054682;28;20176;-73
2021/04/24 03:50:24;;;;;;;9.00;4.67;;;;;;;;;;5054443;28;20193;-72
2021/04/24 03:52:50;;;;;;;7.80;4.60;;;;;;;;;;5053056;28;20175;-73
2021/04/24 03:55:16;;;;;;;9.73;4.80;;;;;;;;;;5053272;28;20184;-73
2021/04/24 03:57:43;;;;;;;8.67;4.83;;;;;;;;;;5053035;28;20199;-74
2021/04/24 04:00:09;;;;;;;8.73;4.33;;;;;;;;;;5053162;28;20258;-72
2021/04/24 04:02:45;;;;;;;11.53;5.10;;;;;;;;;;5054232;28;20300;-73
2021/04/24 04:05:12;;;;;;;9.50;4.67;;;;;;;;;;5052924;28;20651;-73
2021/04/24 04:07:38;;;;;;;12.13;4.70;;;;;;;;;;5036440;28;20205;-73
2021/04/24 04:10:04;;;;;;;13.60;4.93;;;;;;;;;;5053925;28;20680;-73
2021/04/24 04:12:30;;;;;;;8.90;4.87;;;;;;;;;;5054089;28;20173;-73
2021/04/24 04:14:56;;;;;;;11.33;5.13;;;;;;;;;;5036175;28;20183;-73
2021/04/24 04:17:22;;;;;;;7.93;4.80;;;;;;;;;;5052785;28;20242;-73
2021/04/24 04:19:48;;;;;;;12.00;5.33;;;;;;;;;;5036137;28;20185;-73
2021/04/24 04:22:14;;;;;;;10.93;4.63;;;;;;;;;;5052656;28;20188;-73
2021/04/24 04:24:40;;;;;;;10.40;4.77;;;;;;;;;;5053752;28;20595;-73
2021/04/24 04:27:06;;;;;;;8.10;4.53;;;;;;;;;;5052719;28;20547;-73
2021/04/24 04:29:32;;;;;;;11.13;5.00;;;;;;;;;;5052392;28;20206;-73
2021/04/24 04:31:58;;;;;;;9.60;4.97;;;;;;;;;;5052554;28;20286;-73
2021/04/24 04:34:24;;;;;;;11.00;5.10;;;;;;;;;;5053517;28;20208;-73
2021/04/24 04:36:50;;;;;;;9.30;4.87;;;;;;;;;;5052448;28;20209;-73
2021/04/24 04:39:16;;;;;;;11.27;5.27;;;;;;;;;;5053547;28;20228;-73
2021/04/24 04:41:42;;;;;;;9.73;5.50;;;;;;;;;;5052279;28;20272;-73
2021/04/24 04:44:08;;;;;;;9.60;5.00;;;;;;;;;;5052186;28;20185;-73
2021/04/24 04:46:34;;;;;;;11.13;5.07;;;;;;;;;;5052312;28;20182;-73
2021/04/24 04:49:00;;;;;;;8.53;5.00;;;;;;;;;;5052264;28;20532;-73
2021/04/24 04:51:26;;;;;;;12.77;5.30;;;;;;;;;;5052375;28;20569;-73
2021/04/24 04:53:52;;;;;;;11.83;5.57;;;;;;;;;;5035263;28;20217;-73
2021/04/24 04:56:18;;;;;;;12.83;5.50;;;;;;;;;;5052028;28;20213;-73
2021/04/24 04:58:44;;;;;;;12.87;5.30;;;;;;;;;;5051972;28;20180;-73
2021/04/24 05:01:10;;;;;;;10.53;5.40;;;;;;;;;;5031651;28;20200;-74
2021/04/24 05:03:36;;;;;;;10.57;4.80;;;;;;;;;;5048686;28;20192;-74
2021/04/24 05:06:02;;;;;;;12.17;5.03;;;;;;;;;;5051780;28;20181;-75
2021/04/24 05:08:28;;;;;;;11.17;5.03;;;;;;;;;;5051742;28;20186;-74
2021/04/24 05:10:54;;;;;;;11.97;5.60;;;;;;;;;;5051371;28;20780;-76
2021/04/24 05:13:20;;;;;;;16.00;5.87;;;;;;;;;;5034948;28;20186;-76
2021/04/24 05:15:46;;;;;;;10.37;5.67;;;;;;;;;;5052447;28;20184;-76
2021/04/24 05:18:11;;;;;;;9.50;5.37;;;;;;;;;;5050731;28;20268;-73
2021/04/24 05:20:37;;;;;;;11.73;5.57;;;;;;;;;;5030487;28;20198;-73
2021/04/24 05:23:03;;;;;;;13.07;6.07;;;;;;;;;;5045217;28;20193;-73
2021/04/24 05:25:29;;;;;;;15.13;5.40;;;;;;;;;;5051170;28;20259;-73
2021/04/24 05:27:55;;;;;;;9.33;5.80;;;;;;;;;;5051136;28;20182;-73
2021/04/24 05:30:21;;;;;;;14.13;6.13;;;;;;;;;;5050986;28;20204;-73
2021/04/24 05:32:48;;;;;;;13.67;6.13;;;;;;;;;;5051339;28;20171;-73
2021/04/24 05:35:14;;;;;;;9.70;6.33;;;;;;;;;;5034378;28;20271;-73
2021/04/24 05:37:40;;;;;;;10.77;6.03;;;;;;;;;;5034622;28;20205;-73
2021/04/24 05:40:06;;;;;;;12.07;6.10;;;;;;;;;;5050947;28;20205;-73
2021/04/24 05:42:32;;;;;;;14.80;6.43;;;;;;;;;;5034688;28;20203;-73
2021/04/24 05:44:59;;;;;;;11.33;6.63;;;;;;;;;;5051108;28;20203;-74
2021/04/24 05:47:25;;;;;;;13.63;6.97;;;;;;;;;;5051152;28;20179;-71
2021/04/24 05:49:51;;;;;;;12.23;6.27;;;;;;;;;;5050518;28;20209;-69
2021/04/24 05:52:17;;;;;;;11.17;6.20;;;;;;;;;;5051077;28;20698;-69
2021/04/24 05:54:43;;;;;;;15.07;6.87;;;;;;;;;;5031536;28;20194;-70
2021/04/24 05:57:09;;;;;;;13.03;6.67;;;;;;;;;;5041760;28;20218;-69
2021/04/24 05:59:35;;;;;;;13.57;6.70;;;;;;;;;;5051992;28;20264;-69
2021/04/24 06:02:01;;;;;;;17.07;7.13;;;;;;;;;;5051645;28;20184;-69
2021/04/24 06:04:27;;;;;;;13.23;6.80;;;;;;;;;;5034126;28;20173;-70
2021/04/24 06:06:53;;;;;;;14.27;7.07;;;;;;;;;;5050604;28;20184;-69
2021/04/24 06:09:19;;;;;;;12.83;6.60;;;;;;;;;;5049567;28;20188;-70
2021/04/24 06:11:45;;;;;;;11.63;6.63;;;;;;;;;;5030437;28;20218;-69
2021/04/24 06:14:11;;;;;;;15.23;6.87;;;;;;;;;;5030615;28;20178;-70
2021/04/24 06:16:37;;;;;;;13.43;7.03;;;;;;;;;;5032146;28;20235;-69
2021/04/24 06:19:03;;;;;;;14.90;6.57;;;;;;;;;;5014143;28;20179;-70
2021/04/24 06:21:29;;;;;;;12.13;6.37;;;;;;;;;;5030253;28;20198;-69
2021/04/24 06:23:56;;;;;;;15.17;6.77;;;;;;;;;;5050002;28;20746;-70
2021/04/24 06:26:22;;;;;;;14.13;7.10;;;;;;;;;;5060482;28;20189;-69
2021/04/24 06:28:48;;;;;;;12.83;6.67;;;;;;;;;;5067819;28;20644;-70
2021/04/24 06:31:14;;;;;;;12.33;7.13;;;;;;;;;;5070407;28;20202;-70
2021/04/24 06:33:40;;;;;;;14.63;6.90;;;;;;;;;;5052249;28;20713;-70
2021/04/24 06:36:06;;;;;;;11.90;6.73;;;;;;;;;;5040130;28;20620;-70
2021/04/24 06:38:32;;;;;;;11.50;6.33;;;;;;;;;;5041209;28;20185;-70
2021/04/24 06:40:58;;;;;;;9.97;6.00;;;;;;;;;;5043445;28;20194;-70
2021/04/24 06:43:24;;;;;;;10.80;5.17;;;;;;;;;;5046100;28;20174;-70
2021/04/24 06:45:50;;;;;;;10.83;5.67;;;;;;;;;;5046379;28;20186;-71
2021/04/24 06:48:16;;;;;;;10.20;5.60;;;;;;;;;;5046413;28;20704;-70
2021/04/24 06:50:42;;;;;;;9.70;5.73;;;;;;;;;;5043901;28;20586;-71
2021/04/24 06:53:08;;;;;;;11.03;5.47;;;;;;;;;;5041903;28;20248;-70
2021/04/24 06:55:34;;;;;;;7.60;5.20;;;;;;;;;;5039491;28;20265;-69
2021/04/24 06:58:00;;;;;;;9.83;6.00;;;;;;;;;;5035088;28;20215;-69
2021/04/24 07:00:27;;;;;;;10.47;4.93;;;;;;;;;;5034308;28;20219;-69
2021/04/24 07:02:53;;;;;;;9.47;5.07;;;;;;;;;;5035275;28;20175;-69
2021/04/24 07:05:19;;;;;;;11.53;4.90;;;;;;;;;;5033877;28;20602;-69
2021/04/24 07:07:45;;;;;;;9.60;5.17;;;;;;;;;;5034865;28;20252;-70
2021/04/24 07:10:11;;;;;;;9.03;4.87;;;;;;;;;;5017458;28;20314;-71
2021/04/24 07:12:37;;;;;;;8.43;4.50;;;;;;;;;;5035344;28;20179;-70
2021/04/24 07:15:04;;;;;;;10.63;4.90;;;;;;;;;;5033829;28;20240;-71
2021/04/24 07:17:30;;;;;;;8.47;5.47;;;;;;;;;;5034670;28;20214;-75
2021/04/24 07:19:56;;;;;;;7.47;4.07;;;;;;;;;;5017392;28;20197;-74
2021/04/24 07:22:22;;;;;;;8.80;4.67;;;;;;;;;;5033808;28;20183;-72
2021/04/24 07:24:48;;;;;;;6.77;4.37;;;;;;;;;;5033731;28;20229;-72
2021/04/24 07:27:14;;;;;;;10.97;4.60;;;;;;;;;;5033566;28;20270;-72
2021/04/24 07:29:40;;;;;;;9.37;4.20;;;;;;;;;;5033654;28;20700;-73
2021/04/24 07:32:06;;;;;;;9.27;4.27;;;;;;;;;;5033968;28;20183;-79
2021/04/24 07:34:32;;;;;;;9.40;4.30;;;;;;;;;;5033495;28;20261;-76
2021/04/24 07:36:58;;;;;;;10.13;4.93;;;;;;;;;;5033476;28;20617;-75
2021/04/24 07:39:24;;;;;;;9.23;4.40;;;;;;;;;;5034626;28;20175;-73
2021/04/24 07:41:50;;;;;;;6.20;4.30;;;;;;;;;;5033535;28;20202;-73
2021/04/24 07:44:17;;;;;;;10.67;4.80;;;;;;;;;;5034393;28;20228;-73
2021/04/24 07:46:43;;;;;;;8.97;4.20;;;;;;;;;;5016990;28;20182;-73
2021/04/24 07:49:09;;;;;;;8.73;4.70;;;;;;;;;;5033349;28;20179;-73
2021/04/24 07:51:35;;;;;;;7.33;4.40;;;;;;;;;;5034361;28;20286;-73
2021/04/24 07:54:01;;;;;;;6.10;3.63;;;;;;;;;;5033080;28;20180;-73
2021/04/24 07:56:27;;;;;;;6.20;3.77;;;;;;;;;;5033292;28;20574;-73
2021/04/24 07:58:53;;;;;;;7.57;3.70;;;;;;;;;;5034458;28;20262;-73
2021/04/24 08:01:18;;;;;;;8.87;3.87;;;;;;;;;;5034490;28;20197;-73
2021/04/24 08:03:46;;;;;;;5.93;2.97;;;;;;;;;;5032974;28;20701;-73
2021/04/24 08:06:11;;;;;;;3.90;2.50;;;;;;;;;;5034007;28;20333;-72
2021/04/24 08:08:37;;;;;;;6.77;3.40;;;;;;;;;;5016576;28;20252;-72
2021/04/24 08:11:03;;;;;;;6.80;3.30;;;;;;;;;;5032889;28;20308;-73
2021/04/24 08:13:29;;;;;;;7.17;2.90;;;;;;;;;;5032729;28;20190;-72
2021/04/24 08:15:55;;;;;;;7.33;3.40;;;;;;;;;;5034031;28;20189;-74
2021/04/24 08:18:21;;;;;;;5.93;3.50;;;;;;;;;;5016467;28;20182;-73
2021/04/24 08:20:47;;;;;;;5.50;3.07;;;;;;;;;;5034000;28;20673;-74
2021/04/24 08:23:13;;;;;;;5.60;3.10;;;;;;;;;;5032582;28;20205;-73
2021/04/24 08:25:39;;;;;;;5.17;2.50;;;;;;;;;;5032806;28;20206;-74
2021/04/24 08:28:05;;;;;;;7.53;3.03;;;;;;;;;;5033808;28;20185;-75
2021/04/24 08:30:31;;;;;;;6.03;3.07;;;;;;;;;;5032428;28;20201;-72
2021/04/24 08:32:57;;;;;;;5.17;2.53;;;;;;;;;;5033706;28;20260;-74
2021/04/24 08:35:23;;;;;;;4.00;2.70;;;;;;;;;;5033497;28;20264;-73
2021/04/24 08:37:49;;;;;;;4.07;2.70;;;;;;;;;;5015983;28;20264;-73
2021/04/24 08:40:15;;;;;;;5.03;2.90;;;;;;;;;;5015970;28;20669;-75
2021/04/24 08:42:41;;;;;;;5.70;3.33;;;;;;;;;;5032330;28;20182;-75
2021/04/24 08:45:14;;;;;;;5.50;3.03;;;;;;;;;;5016074;28;20188;-73
2021/04/24 08:47:48;;;;;;;4.47;2.23;;;;;;;;;;5016960;28;20262;-75
2021/04/24 08:50:15;;;;;;;8.27;2.87;;;;;;;;;;5025417;28;20317;-72
2021/04/24 08:52:41;;;;;;;7.57;3.53;;;;;;;;;;5043477;28;20183;-71
2021/04/24 08:55:07;;;;;;;4.93;3.27;;;;;;;;;;5044687;28;20189;-75
2021/04/24 08:57:35;;;;;;;5.47;3.37;;;;;;;;;;5053275;28;20212;-76
2021/04/24 09:00:01;;;;;;;7.23;3.70;;;;;;;;;;5053423;28;20680;-73
2021/04/24 09:02:27;;;;;;;4.23;3.07;;;;;;;;;;5051980;28;20221;-74
2021/04/24 09:04:53;;;;;;;6.03;2.93;;;;;;;;;;5041116;28;20206;-74
2021/04/24 09:07:19;;;;;;;4.60;2.73;;;;;;;;;;5048149;28;20224;-73
2021/04/24 09:09:55;;;;;;;6.37;3.20;;;;;;;;;;5051447;28;20193;-76
2021/04/24 09:12:37;;;;;;;5.67;2.57;;;;;;;;;;5028670;23;20223;-76
2021/04/24 09:15:07;;;;;;;4.73;2.87;;;;;;;;;;5010862;28;20183;-76
2021/04/24 09:17:52;;;;;;;5.17;3.43;;;;;;;;;;5011080;28;20611;-74
2021/04/24 09:20:19;;;;;;;3.97;2.43;;;;;;;;;;5011611;28;20199;-74
2021/04/24 09:22:58;;;;;;;5.77;3.00;;;;;;;;;;5011715;28;20279;-74
2021/04/24 09:25:33;;;;;;;5.53;3.30;;;;;;;;;;5028313;28;20647;-77
2021/04/24 09:27:59;;;;;;;5.67;2.93;;;;;;;;;;4995918;28;20183;-73
2021/04/24 09:30:27;;;;;;;7.07;3.90;;;;;;;;;;5013109;28;20723;-73
2021/04/24 09:32:54;;;;;;;8.50;3.63;;;;;;;;;;5027829;28;20262;-74
2021/04/24 09:35:22;;;;;;;17.40;11.00;;;;;;;;;;5011501;28;20726;-74
2021/04/24 09:38:01;;;;;;;6.37;3.80;;;;;;;;;;5011555;28;20235;-72
2021/04/24 09:40:27;;;;;;;7.77;3.97;;;;;;;;;;5028075;28;20183;-72
2021/04/24 09:43:00;;;;;;;6.83;3.47;;;;;;;;;;5011536;28;20287;-72
2021/04/24 09:45:27;;;;;;;7.27;3.50;;;;;;;;;;5012310;28;20214;-72
2021/04/24 09:47:53;;;;;;;7.23;3.60;;;;;;;;;;5027573;28;20446;-71
2021/04/24 09:50:24;;;;;;;6.97;3.93;;;;;;;;;;5011122;28;20267;-71
2021/04/24 09:52:50;;;;;;;7.07;3.73;;;;;;;;;;5011268;28;20207;-71
2021/04/24 09:55:17;;;;;;;7.57;3.67;;;;;;;;;;5027452;28;20207;-71
2021/04/24 09:57:43;;;;;;;6.37;3.80;;;;;;;;;;4994672;28;20289;-71
2021/04/24 10:00:15;;;;;;;6.33;3.37;;;;;;;;;;5011292;28;20179;-72
2021/04/24 10:02:42;;;;;;;8.10;3.73;;;;;;;;;;5009871;28;20207;-71
2021/04/24 10:05:11;;;;;;;5.57;3.30;;;;;;;;;;5011917;28;20190;-73
2021/04/24 10:07:41;;;;;;;7.13;3.70;;;;;;;;;;5012350;28;20190;-72
2021/04/24 10:10:08;;;;;;;6.77;3.40;;;;;;;;;;5012542;28;20710;-73
2021/04/24 10:12:34;;;;;;;6.83;3.63;;;;;;;;;;5011038;28;20258;-72
2021/04/24 10:15:00;;;;;;;6.00;3.53;;;;;;;;;;5011012;28;20183;-73
2021/04/24 10:17:27;;;;;;;7.77;3.17;;;;;;;;;;4994756;28;20211;-72
2021/04/24 10:19:53;;;;;;;5.97;3.67;;;;;;;;;;5011654;28;20198;-74
2021/04/24 10:22:19;;;;;;;7.57;3.80;;;;;;;;;;5012038;28;20223;-73
2021/04/24 10:24:45;;;;;;;4.47;3.33;;;;;;;;;;5010753;28;20651;-71
2021/04/24 10:27:12;;;;;;;6.03;3.60;;;;;;;;;;5011055;28;20268;-71
2021/04/24 10:29:38;;;;;;;6.33;3.50;;;;;;;;;;5010710;28;20207;-73
2021/04/24 10:32:04;;;;;;;10.47;3.47;;;;;;;;;;5010748;28;20199;-72
2021/04/24 10:34:30;;;;;;;7.03;3.70;;;;;;;;;;5011971;28;20187;-70
2021/04/24 10:36:56;;;;;;;8.47;3.70;;;;;;;;;;5011926;28;20218;-69
2021/04/24 10:39:23;;;;;;;5.20;3.70;;;;;;;;;;5010960;28;20262;-69
2021/04/24 10:41:56;;;;;;;4.90;3.43;;;;;;;;;;5010541;28;20679;-70
2021/04/24 10:44:23;;;;;;;7.03;3.30;;;;;;;;;;5011503;28;20204;-69
2021/04/24 10:46:53;;;;;;;7.77;3.70;;;;;;;;;;5011777;28;20203;-69
2021/04/24 10:49:20;;;;;;;7.77;3.27;;;;;;;;;;5010803;28;20180;-68
2021/04/24 10:51:58;;;;;;;6.90;3.37;;;;;;;;;;5010254;28;20196;-68
2021/04/24 10:54:28;;;;;;;7.03;3.47;;;;;;;;;;5011888;28;20175;-68
2021/04/24 10:56:54;;;;;;;6.17;3.90;;;;;;;;;;5010498;28;20781;-68
2021/04/24 10:59:20;;;;;;;5.77;3.47;;;;;;;;;;5010759;28;20176;-68
2021/04/24 11:02:01;;;;;;;6.53;3.90;;;;;;;;;;5011750;28;20221;-68
2021/04/24 11:04:38;;;;;;;7.23;3.87;;;;;;;;;;5011513;28;20184;-69
2021/04/24 11:07:21;;;;;;;7.97;4.17;;;;;;;;;;5011768;28;20187;-69
2021/04/24 11:10:22;;;;;;;6.13;3.97;;;;;;;;;;5010410;28;20183;-69
2021/04/24 11:12:48;;;;;;;8.00;4.53;;;;;;;;;;5011256;28;20258;-69
2021/04/24 11:15:15;;;;;;;8.53;4.73;;;;;;;;;;5010307;28;20184;-69
2021/04/24 11:17:41;;;;;;;8.27;4.63;;;;;;;;;;5010111;28;20216;-69
2021/04/24 11:20:08;;;;;;;7.60;4.70;;;;;;;;;;4994354;28;20191;-69
2021/04/24 11:22:34;;;;;;;5.70;4.00;;;;;;;;;;5011520;28;20643;-73
2021/04/24 11:25:22;;;;;;;7.50;4.10;;;;;;;;;;5011515;28;20171;-71
2021/04/24 11:28:07;;;;;;;6.70;4.23;;;;;;;;;;5014048;28;20543;-71
2021/04/24 11:30:52;;;;;;;8.13;3.70;;;;;;;;;;5014094;28;20187;-72
2021/04/24 11:33:39;;;;;;;6.13;3.40;;;;;;;;;;5015214;28;20180;-71
2021/04/24 11:36:19;;;;;;;6.97;2.90;;;;;;;;;;5013620;28;20179;-71
2021/04/24 11:39:05;;;;;;;5.30;3.33;;;;;;;;;;5014977;28;20179;-73
2021/04/24 11:41:34;;;;;;;5.23;3.40;;;;;;;;;;5014933;28;20215;-71
2021/04/24 11:44:01;;;;;;;5.67;3.70;;;;;;;;;;5014205;28;20187;-72
2021/04/24 11:46:36;;;;;;;7.80;3.80;;;;;;;;;;5013616;28;20215;-73
2021/04/24 11:49:05;;;;;;;5.80;4.30;;;;;;;;;;4997378;28;20553;-73
2021/04/24 11:51:38;;;;;;;7.43;3.77;;;;;;;;;;5014843;28;20200;-72
2021/04/24 11:54:05;;;;;;;6.67;3.30;;;;;;;;;;5014623;28;20659;-72
2021/04/24 11:56:32;;;;;;;6.90;3.90;;;;;;;;;;5014374;28;20207;-72
2021/04/24 11:58:59;;;;;;;5.80;3.73;;;;;;;;;;5014433;28;20180;-72
2021/04/24 12:01:25;;;;;;;5.77;4.40;;;;;;;;;;4997266;28;20211;-72
2021/04/24 12:03:52;;;;;;;7.43;3.83;;;;;;;;;;5014105;28;20704;-72
2021/04/24 12:06:37;;;;;;;7.47;4.20;;;;;;;;;;5014063;28;20557;-71
2021/04/24 12:09:08;;;;;;;7.07;4.47;;;;;;;;;;5013799;28;20262;-72
2021/04/24 12:11:34;;;;;;;8.47;4.47;;;;;;;;;;5013612;28;20268;-72
2021/04/24 12:14:00;;;;;;;5.73;3.90;;;;;;;;;;5014482;28;20184;-71
2021/04/24 12:16:39;;;;;;;6.90;4.17;;;;;;;;;;4995742;28;20691;-70
2021/04/24 12:19:23;;;;;;;6.60;4.13;;;;;;;;;;5014600;28;20183;-73
2021/04/24 12:22:03;;;;;;;6.90;4.37;;;;;;;;;;5011925;28;20204;-72
2021/04/24 12:24:29;;;;;;;10.17;4.30;;;;;;;;;;4982777;28;20183;-69
2021/04/24 12:26:55;;;;;;;6.20;4.00;;;;;;;;;;5014611;28;20188;-72
2021/04/24 12:29:40;;;;;;;7.10;4.00;;;;;;;;;;5014521;28;20305;-71
2021/04/24 12:32:15;;;;;;;7.50;3.80;;;;;;;;;;5011320;28;20203;-70
2021/04/24 12:34:41;;;;;;;6.87;3.80;;;;;;;;;;5012722;28;20595;-70
2021/04/24 12:37:09;;;;;;;7.27;3.93;;;;;;;;;;4996624;28;20211;-71
2021/04/24 12:39:35;;;;;;;12.70;4.07;;;;;;;;;;5011491;28;20176;-71
2021/04/24 12:42:02;;;;;;;6.07;3.60;;;;;;;;;;4986252;28;20204;-71
2021/04/24 12:44:29;;;;;;;5.93;3.73;;;;;;;;;;5008660;28;20188;-73
2021/04/24 12:46:55;;;;;;;7.23;4.07;;;;;;;;;;5029950;28;20179;-72
2021/04/24 12:49:21;;;;;;;7.13;4.33;;;;;;;;;;5004257;28;20187;-72
2021/04/24 12:52:00;;;;;;;7.47;3.87;;;;;;;;;;5006433;28;20206;-72
2021/04/24 12:54:26;;;;;;;7.03;3.80;;;;;;;;;;5012701;28;20274;-72
2021/04/24 12:57:08;;;;;;;6.60;3.80;;;;;;;;;;5013324;28;20342;-73
2021/04/24 12:59:34;;;;;;;6.07;3.83;;;;;;;;;;5008257;28;20183;-71
2021/04/24 13:02:00;;;;;;;4.63;3.60;;;;;;;;;;5012380;28;20269;-74
2021/04/24 13:04:26;;;;;;;6.70;3.47;;;;;;;;;;5013177;28;20222;-74
2021/04/24 13:06:56;;;;;;;8.43;3.73;;;;;;;;;;5013414;28;20255;-73
2021/04/24 13:09:22;;;;;;;6.30;4.10;;;;;;;;;;5012506;28;20266;-73
2021/04/24 13:11:55;;;;;;;7.87;3.90;;;;;;;;;;5012388;28;20567;-73
2021/04/24 13:14:24;;;;;;;6.30;3.20;;;;;;;;;;4995767;28;20193;-73
2021/04/24 13:16:50;;;;;;;7.83;3.93;;;;;;;;;;5012135;28;20230;-73
2021/04/24 13:19:17;;;;;;;10.10;4.17;;;;;;;;;;5012058;28;20175;-73
2021/04/24 13:21:43;;;;;;;6.10;3.73;;;;;;;;;;4995860;28;20204;-73
2021/04/24 13:24:10;;;;;;;5.53;3.80;;;;;;;;;;4995588;28;20189;-73
2021/04/24 13:26:38;;;;;;;7.03;3.93;;;;;;;;;;4995891;28;20186;-73
2021/04/24 13:29:17;;;;;;;8.10;4.43;;;;;;;;;;4995549;28;20180;-73
2021/04/24 13:31:43;;;;;;;7.47;4.30;;;;;;;;;;5010284;28;20582;-76
2021/04/24 13:34:15;;;;;;;6.57;3.73;;;;;;;;;;5011428;28;20180;-74
2021/04/24 13:36:41;;;;;;;8.50;4.07;;;;;;;;;;5010111;28;20203;-74
2021/04/24 13:39:07;;;;;;;6.00;3.53;;;;;;;;;;5010935;28;20205;-73
2021/04/24 13:41:37;;;;;;;5.37;3.63;;;;;;;;;;5010906;28;20679;-74
2021/04/24 13:44:07;;;;;;;7.37;4.13;;;;;;;;;;5011270;28;20175;-72
2021/04/24 13:46:32;;;;;;;6.83;3.77;;;;;;;;;;5011469;28;20191;-72
2021/04/24 13:49:09;;;;;;;7.60;3.80;;;;;;;;;;5012551;28;20179;-73
2021/04/24 13:51:35;;;;;;;6.67;3.73;;;;;;;;;;5011391;28;20414;-73
2021/04/24 13:54:01;;;;;;;7.77;3.80;;;;;;;;;;5011292;28;20302;-72
2021/04/24 13:56:27;;;;;;;7.33;3.70;;;;;;;;;;5011024;28;20211;-74
2021/04/24 13:58:53;;;;;;;7.40;3.60;;;;;;;;;;5011567;28;20172;-74
2021/04/24 14:01:18;;;;;;;6.90;3.57;;;;;;;;;;5011609;28;20273;-74
2021/04/24 14:03:44;;;;;;;6.70;3.73;;;;;;;;;;5011970;28;20179;-75
2021/04/24 14:06:10;;;;;;;5.70;3.00;;;;;;;;;;4994492;28;20178;-73
2021/04/24 14:08:36;;;;;;;6.23;3.60;;;;;;;;;;5010866;28;20207;-72
2021/04/24 14:11:02;;;;;;;6.37;3.17;;;;;;;;;;5010971;28;20210;-73
2021/04/24 14:13:29;;;;;;;5.80;3.00;;;;;;;;;;4994701;28;20183;-72
2021/04/24 14:15:55;;;;;;;7.63;3.40;;;;;;;;;;5006556;28;20692;-73
2021/04/24 14:18:21;;;;;;;7.40;3.33;;;;;;;;;;5010645;28;20207;-73
2021/04/24 14:20:47;;;;;;;5.47;3.20;;;;;;;;;;5012373;28;20179;-73
2021/04/24 14:23:13;;;;;;;5.63;3.03;;;;;;;;;;5011220;28;20179;-74
2021/04/24 14:25:39;;;;;;;8.53;3.17;;;;;;;;;;5011957;28;20176;-73
2021/04/24 14:28:05;;;;;;;6.63;3.10;;;;;;;;;;5011224;28;20183;-74
2021/04/24 14:30:31;;;;;;;7.00;3.17;;;;;;;;;;5011084;28;20175;-73
2021/04/24 14:32:57;;;;;;;7.23;3.40;;;;;;;;;;5011120;28;20203;-74
2021/04/24 14:35:23;;;;;;;5.30;3.17;;;;;;;;;;5011667;28;20187;-74
2021/04/24 14:37:49;;;;;;;7.87;3.20;;;;;;;;;;5011986;28;20208;-75
2021/04/24 14:40:16;;;;;;;6.07;3.40;;;;;;;;;;5012252;28;20191;-74
2021/04/24 14:42:42;;;;;;;5.73;3.10;;;;;;;;;;5011054;28;20195;-73